Aviation Digital Data Service (ADDS)

Output produced by METARs form (0137 UTC 16 January 2019)
found at http://www.aviationweather.gov/metar/data/
 
TAF MZBZ 152100Z 1600/1624 36005KT 9999 SCT016 BKN040 
     PROB40 
     TEMPO 1603/1614 5000 RA BKN035 
     PROB30 
     TEMPO 1606/1612 4000 SHRA BKN014